Terminal Aerodrome Forecast
Issued by NWS Wilmington, NC

Home | Current Version | Previous Version | Text Only | Print | Product List | Glossary On
Versions: 1 2 3 4 5 6 7 8 9 10 11 12 13 14 15 16 17
032
FTUS42 KILM 292357 CCC
TAFFLO
TAF COR
KFLO 292357Z 3000/3024 23006KT P6SM VCTS FEW030CB SCT060
      TEMPO 3000/3001 VRB15G25KT 5SM -TSRA BKN035CB
     FM300100 24004KT P6SM BKN150
     FM301400 23009KT P6SM SCT050 PROB30 3018/3024 VRB15G30KT 4SM
      TSRA BKN035CB=

USA.gov is the U.S. government's official web portal to all federal, state and local government web resources and services.